sensor_id;sensor_type;location;lat;lon;timestamp;temperature;humidity
10512;DHT22;5304;48.604;2.096;2023-12-29T04:53:45;9.30;99.90
10512;DHT22;5304;48.604;2.096;2023-12-29T04:56:29;9.30;99.90
10512;DHT22;5304;48.604;2.096;2023-12-29T04:59:13;9.30;99.90
10512;DHT22;5304;48.604;2.096;2023-12-29T05:01:57;9.30;99.90
10512;DHT22;5304;48.604;2.096;2023-12-29T05:04:42;9.30;99.90
10512;DHT22;5304;48.604;2.096;2023-12-29T05:07:26;9.40;99.90
10512;DHT22;5304;48.604;2.096;2023-12-29T05:10:10;9.40;99.90
10512;DHT22;5304;48.604;2.096;2023-12-29T05:12:56;9.40;99.90
10512;DHT22;5304;48.604;2.096;2023-12-29T05:15:40;9.40;99.90
10512;DHT22;5304;48.604;2.096;2023-12-29T05:18:24;9.40;99.90
10512;DHT22;5304;48.604;2.096;2023-12-29T05:21:17;9.40;99.90
10512;DHT22;5304;48.604;2.096;2023-12-29T05:24:02;9.40;99.90
10512;DHT22;5304;48.604;2.096;2023-12-29T05:26:47;9.40;99.90
10512;DHT22;5304;48.604;2.096;2023-12-29T05:29:32;9.40;99.90
10512;DHT22;5304;48.604;2.096;2023-12-29T05:32:16;9.50;99.90
10512;DHT22;5304;48.604;2.096;2023-12-29T05:35:00;9.50;99.90
10512;DHT22;5304;48.604;2.096;2023-12-29T05:37:44;9.50;99.90
10512;DHT22;5304;48.604;2.096;2023-12-29T05:40:29;9.50;99.90
10512;DHT22;5304;48.604;2.096;2023-12-29T05:43:15;9.50;99.90
10512;DHT22;5304;48.604;2.096;2023-12-29T05:45:59;9.50;99.90
10512;DHT22;5304;48.604;2.096;2023-12-29T05:48:43;9.50;99.90
10512;DHT22;5304;48.604;2.096;2023-12-29T05:51:27;9.50;99.90
10512;DHT22;5304;48.604;2.096;2023-12-29T05:54:13;9.60;99.90
10512;DHT22;5304;48.604;2.096;2023-12-29T05:56:58;9.50;99.90
10512;DHT22;5304;48.604;2.096;2023-12-29T05:59:42;9.50;99.90
10512;DHT22;5304;48.604;2.096;2023-12-29T06:02:26;9.60;99.90
10512;DHT22;5304;48.604;2.096;2023-12-29T06:05:11;9.60;99.90
10512;DHT22;5304;48.604;2.096;2023-12-29T06:07:56;9.60;99.90
10512;DHT22;5304;48.604;2.096;2023-12-29T06:10:40;9.60;99.90
10512;DHT22;5304;48.604;2.096;2023-12-29T06:13:25;9.60;99.90
10512;DHT22;5304;48.604;2.096;2023-12-29T06:16:09;9.60;99.90
10512;DHT22;5304;48.604;2.096;2023-12-29T06:18:53;9.60;99.90
10512;DHT22;5304;48.604;2.096;2023-12-29T06:21:41;9.60;99.90
10512;DHT22;5304;48.604;2.096;2023-12-29T06:24:26;9.60;99.90
10512;DHT22;5304;48.604;2.096;2023-12-29T06:27:11;9.60;99.90
10512;DHT22;5304;48.604;2.096;2023-12-29T06:29:56;9.60;99.90
10512;DHT22;5304;48.604;2.096;2023-12-29T06:32:41;9.60;99.90
10512;DHT22;5304;48.604;2.096;2023-12-29T06:35:25;9.60;99.90
10512;DHT22;5304;48.604;2.096;2023-12-29T06:38:09;9.60;99.90
10512;DHT22;5304;48.604;2.096;2023-12-29T06:40:53;9.60;99.90
10512;DHT22;5304;48.604;2.096;2023-12-29T06:43:38;9.60;99.90
10512;DHT22;5304;48.604;2.096;2023-12-29T06:46:22;9.60;99.90
10512;DHT22;5304;48.604;2.096;2023-12-29T06:49:08;9.60;99.90
10512;DHT22;5304;48.604;2.096;2023-12-29T06:51:52;9.60;99.90
10512;DHT22;5304;48.604;2.096;2023-12-29T06:54:37;9.60;99.90
10512;DHT22;5304;48.604;2.096;2023-12-29T06:57:21;9.60;99.90
10512;DHT22;5304;48.604;2.096;2023-12-29T07:00:06;9.60;99.90
10512;DHT22;5304;48.604;2.096;2023-12-29T07:02:51;9.60;99.90
10512;DHT22;5304;48.604;2.096;2023-12-29T07:05:35;9.60;99.90
10512;DHT22;5304;48.604;2.096;2023-12-29T07:08:19;9.70;99.90
10512;DHT22;5304;48.604;2.096;2023-12-29T07:11:04;9.70;99.90
10512;DHT22;5304;48.604;2.096;2023-12-29T07:13:48;9.70;99.90
10512;DHT22;5304;48.604;2.096;2023-12-29T07:16:32;9.70;99.90
10512;DHT22;5304;48.604;2.096;2023-12-29T07:19:16;9.70;99.90
10512;DHT22;5304;48.604;2.096;2023-12-29T07:22:01;9.70;99.90
10512;DHT22;5304;48.604;2.096;2023-12-29T07:24:45;9.70;99.90
10512;DHT22;5304;48.604;2.096;2023-12-29T07:27:29;9.70;99.90
10512;DHT22;5304;48.604;2.096;2023-12-29T07:30:14;9.70;99.90
10512;DHT22;5304;48.604;2.096;2023-12-29T07:32:58;9.70;99.90
10512;DHT22;5304;48.604;2.096;2023-12-29T07:35:42;9.70;99.90
10512;DHT22;5304;48.604;2.096;2023-12-29T07:38:27;9.60;99.90
10512;DHT22;5304;48.604;2.096;2023-12-29T07:41:11;9.60;99.90
10512;DHT22;5304;48.604;2.096;2023-12-29T07:43:55;9.60;99.90
10512;DHT22;5304;48.604;2.096;2023-12-29T07:46:40;9.60;99.90
10512;DHT22;5304;48.604;2.096;2023-12-29T07:49:24;9.60;99.90
10512;DHT22;5304;48.604;2.096;2023-12-29T07:52:09;9.60;99.90
10512;DHT22;5304;48.604;2.096;2023-12-29T07:54:53;9.60;99.90
10512;DHT22;5304;48.604;2.096;2023-12-29T07:57:37;9.60;99.90
10512;DHT22;5304;48.604;2.096;2023-12-29T08:00:22;9.60;99.90
10512;DHT22;5304;48.604;2.096;2023-12-29T08:03:07;9.60;99.90
10512;DHT22;5304;48.604;2.096;2023-12-29T08:05:51;9.60;99.90
10512;DHT22;5304;48.604;2.096;2023-12-29T08:08:35;9.60;99.90
10512;DHT22;5304;48.604;2.096;2023-12-29T08:11:19;9.70;99.90
10512;DHT22;5304;48.604;2.096;2023-12-29T08:14:03;9.70;99.90
10512;DHT22;5304;48.604;2.096;2023-12-29T08:16:47;9.70;99.90
10512;DHT22;5304;48.604;2.096;2023-12-29T08:19:32;9.70;99.90
10512;DHT22;5304;48.604;2.096;2023-12-29T08:22:16;9.70;99.90
10512;DHT22;5304;48.604;2.096;2023-12-29T08:25:00;9.70;99.90
10512;DHT22;5304;48.604;2.096;2023-12-29T08:27:45;9.70;99.90
10512;DHT22;5304;48.604;2.096;2023-12-29T08:30:29;9.70;99.90
10512;DHT22;5304;48.604;2.096;2023-12-29T08:33:14;9.70;99.90
10512;DHT22;5304;48.604;2.096;2023-12-29T08:35:58;9.70;99.90
10512;DHT22;5304;48.604;2.096;2023-12-29T08:38:44;9.80;99.90
10512;DHT22;5304;48.604;2.096;2023-12-29T08:41:29;9.70;99.90
10512;DHT22;5304;48.604;2.096;2023-12-29T08:44:13;9.70;99.90
10512;DHT22;5304;48.604;2.096;2023-12-29T08:47:00;9.70;99.90
10512;DHT22;5304;48.604;2.096;2023-12-29T08:49:45;9.80;99.90
10512;DHT22;5304;48.604;2.096;2023-12-29T08:52:30;9.80;99.90
10512;DHT22;5304;48.604;2.096;2023-12-29T08:55:15;9.90;99.90
10512;DHT22;5304;48.604;2.096;2023-12-29T08:57:59;9.80;99.90
10512;DHT22;5304;48.604;2.096;2023-12-29T09:00:43;9.90;99.90
10512;DHT22;5304;48.604;2.096;2023-12-29T09:03:28;9.90;99.90
10512;DHT22;5304;48.604;2.096;2023-12-29T09:06:12;9.90;99.90
10512;DHT22;5304;48.604;2.096;2023-12-29T09:08:58;9.90;99.90
10512;DHT22;5304;48.604;2.096;2023-12-29T09:11:42;9.90;99.90
10512;DHT22;5304;48.604;2.096;2023-12-29T09:14:26;10.00;99.90
10512;DHT22;5304;48.604;2.096;2023-12-29T09:17:12;10.00;99.90
10512;DHT22;5304;48.604;2.096;2023-12-29T09:19:56;9.90;99.90
10512;DHT22;5304;48.604;2.096;2023-12-29T09:22:40;10.00;99.90
10512;DHT22;5304;48.604;2.096;2023-12-29T09:25:25;10.00;99.90
10512;DHT22;5304;48.604;2.096;2023-12-29T09:28:10;10.00;99.90
10512;DHT22;5304;48.604;2.096;2023-12-29T09:30:54;10.00;99.90
10512;DHT22;5304;48.604;2.096;2023-12-29T09:33:38;10.00;99.90
10512;DHT22;5304;48.604;2.096;2023-12-29T09:36:23;10.00;99.90
10512;DHT22;5304;48.604;2.096;2023-12-29T09:39:08;9.90;99.90
10512;DHT22;5304;48.604;2.096;2023-12-29T09:41:56;10.00;99.90
10512;DHT22;5304;48.604;2.096;2023-12-29T09:44:42;10.00;99.90
10512;DHT22;5304;48.604;2.096;2023-12-29T09:47:28;10.00;99.90
10512;DHT22;5304;48.604;2.096;2023-12-29T09:50:15;10.10;99.90
10512;DHT22;5304;48.604;2.096;2023-12-29T09:53:00;10.20;99.90
10512;DHT22;5304;48.604;2.096;2023-12-29T09:55:46;10.30;99.90
10512;DHT22;5304;48.604;2.096;2023-12-29T09:58:32;10.30;99.90
10512;DHT22;5304;48.604;2.096;2023-12-29T10:01:18;10.40;99.90
10512;DHT22;5304;48.604;2.096;2023-12-29T10:04:03;10.40;99.90
10512;DHT22;5304;48.604;2.096;2023-12-29T10:06:49;10.40;99.90
10512;DHT22;5304;48.604;2.096;2023-12-29T10:09:34;10.40;99.90
10512;DHT22;5304;48.604;2.096;2023-12-29T10:12:21;10.40;99.90
10512;DHT22;5304;48.604;2.096;2023-12-29T10:18:42;10.40;99.90
10512;DHT22;5304;48.604;2.096;2023-12-29T10:21:31;10.40;99.90
10512;DHT22;5304;48.604;2.096;2023-12-29T10:24:19;10.50;99.90
10512;DHT22;5304;48.604;2.096;2023-12-29T10:27:04;10.50;99.90
10512;DHT22;5304;48.604;2.096;2023-12-29T10:29:48;10.50;99.90
10512;DHT22;5304;48.604;2.096;2023-12-29T10:32:33;10.50;99.90
10512;DHT22;5304;48.604;2.096;2023-12-29T10:35:17;10.60;99.90
10512;DHT22;5304;48.604;2.096;2023-12-29T10:38:11;10.60;99.90
10512;DHT22;5304;48.604;2.096;2023-12-29T10:41:18;10.70;99.90
10512;DHT22;5304;48.604;2.096;2023-12-29T10:44:07;10.70;99.90
10512;DHT22;5304;48.604;2.096;2023-12-29T10:46:52;10.70;99.90
10512;DHT22;5304;48.604;2.096;2023-12-29T10:49:38;10.70;99.90
10512;DHT22;5304;48.604;2.096;2023-12-29T10:52:23;10.60;99.90
10512;DHT22;5304;48.604;2.096;2023-12-29T10:55:09;10.60;99.90
10512;DHT22;5304;48.604;2.096;2023-12-29T10:58:00;10.60;99.90
10512;DHT22;5304;48.604;2.096;2023-12-29T11:00:45;10.60;99.90
10512;DHT22;5304;48.604;2.096;2023-12-29T11:03:29;10.60;99.90
10512;DHT22;5304;48.604;2.096;2023-12-29T11:06:16;10.50;99.90
10512;DHT22;5304;48.604;2.096;2023-12-29T11:09:00;10.50;99.90
10512;DHT22;5304;48.604;2.096;2023-12-29T11:11:44;10.40;99.90
10512;DHT22;5304;48.604;2.096;2023-12-29T11:14:30;10.50;99.90
10512;DHT22;5304;48.604;2.096;2023-12-29T11:17:14;10.50;99.90
10512;DHT22;5304;48.604;2.096;2023-12-29T11:20:00;10.50;99.90
10512;DHT22;5304;48.604;2.096;2023-12-29T11:22:46;10.50;99.90
10512;DHT22;5304;48.604;2.096;2023-12-29T11:25:30;10.50;99.90
10512;DHT22;5304;48.604;2.096;2023-12-29T11:28:14;10.60;99.90
10512;DHT22;5304;48.604;2.096;2023-12-29T11:31:00;10.60;99.90
10512;DHT22;5304;48.604;2.096;2023-12-29T11:33:52;10.50;99.90
10512;DHT22;5304;48.604;2.096;2023-12-29T11:36:42;10.50;99.90
10512;DHT22;5304;48.604;2.096;2023-12-29T11:42:27;10.40;99.90
10512;DHT22;5304;48.604;2.096;2023-12-29T11:45:31;10.40;99.90
10512;DHT22;5304;48.604;2.096;2023-12-29T11:48:54;10.40;99.90
10512;DHT22;5304;48.604;2.096;2023-12-29T11:51:43;10.40;99.90
10512;DHT22;5304;48.604;2.096;2023-12-29T11:54:27;10.50;99.90
10512;DHT22;5304;48.604;2.096;2023-12-29T11:57:11;10.40;99.90
10512;DHT22;5304;48.604;2.096;2023-12-29T11:59:56;10.40;99.90
10512;DHT22;5304;48.604;2.096;2023-12-29T12:02:40;10.40;99.90
10512;DHT22;5304;48.604;2.096;2023-12-29T12:05:48;10.40;99.90
10512;DHT22;5304;48.604;2.096;2023-12-29T12:08:34;10.50;99.90
10512;DHT22;5304;48.604;2.096;2023-12-29T12:14:48;10.30;99.90
10512;DHT22;5304;48.604;2.096;2023-12-29T12:17:33;10.30;99.90
10512;DHT22;5304;48.604;2.096;2023-12-29T12:20:18;10.30;99.90
10512;DHT22;5304;48.604;2.096;2023-12-29T12:23:08;10.30;99.90
10512;DHT22;5304;48.604;2.096;2023-12-29T12:25:58;10.40;99.90
10512;DHT22;5304;48.604;2.096;2023-12-29T12:28:45;10.30;99.90
10512;DHT22;5304;48.604;2.096;2023-12-29T12:31:29;10.30;99.90
10512;DHT22;5304;48.604;2.096;2023-12-29T12:34:13;10.30;99.90
10512;DHT22;5304;48.604;2.096;2023-12-29T12:36:58;10.40;99.90
10512;DHT22;5304;48.604;2.096;2023-12-29T12:39:46;10.40;99.90
10512;DHT22;5304;48.604;2.096;2023-12-29T12:42:39;10.40;99.90
10512;DHT22;5304;48.604;2.096;2023-12-29T12:45:27;10.30;99.90
10512;DHT22;5304;48.604;2.096;2023-12-29T12:48:14;10.30;99.90
10512;DHT22;5304;48.604;2.096;2023-12-29T12:51:04;10.30;99.90
10512;DHT22;5304;48.604;2.096;2023-12-29T12:53:48;10.30;99.90
10512;DHT22;5304;48.604;2.096;2023-12-29T12:56:34;10.40;99.90
10512;DHT22;5304;48.604;2.096;2023-12-29T12:59:19;10.40;99.90
10512;DHT22;5304;48.604;2.096;2023-12-29T13:02:04;10.50;99.90
10512;DHT22;5304;48.604;2.096;2023-12-29T13:04:49;10.50;99.90
10512;DHT22;5304;48.604;2.096;2023-12-29T13:07:35;10.40;99.90
10512;DHT22;5304;48.604;2.096;2023-12-29T13:10:19;10.50;99.90
10512;DHT22;5304;48.604;2.096;2023-12-29T13:13:04;10.50;99.90
10512;DHT22;5304;48.604;2.096;2023-12-29T13:15:48;10.50;99.90
10512;DHT22;5304;48.604;2.096;2023-12-29T13:18:33;10.60;99.90
10512;DHT22;5304;48.604;2.096;2023-12-29T13:21:19;10.60;99.90
10512;DHT22;5304;48.604;2.096;2023-12-29T13:24:06;10.70;99.90
10512;DHT22;5304;48.604;2.096;2023-12-29T13:26:54;10.70;99.90
10512;DHT22;5304;48.604;2.096;2023-12-29T13:29:39;10.70;99.90
10512;DHT22;5304;48.604;2.096;2023-12-29T13:32:27;10.70;99.90
10512;DHT22;5304;48.604;2.096;2023-12-29T13:35:21;10.70;99.90
10512;DHT22;5304;48.604;2.096;2023-12-29T13:38:19;10.90;99.90
10512;DHT22;5304;48.604;2.096;2023-12-29T13:41:08;10.80;99.90
10512;DHT22;5304;48.604;2.096;2023-12-29T13:43:54;10.80;99.90
10512;DHT22;5304;48.604;2.096;2023-12-29T13:46:38;10.90;99.90
10512;DHT22;5304;48.604;2.096;2023-12-29T13:49:23;11.00;99.90
10512;DHT22;5304;48.604;2.096;2023-12-29T13:52:07;11.10;99.90
10512;DHT22;5304;48.604;2.096;2023-12-29T13:54:52;11.10;99.90
10512;DHT22;5304;48.604;2.096;2023-12-29T13:57:36;11.20;99.90
10512;DHT22;5304;48.604;2.096;2023-12-29T14:00:26;11.20;99.90
10512;DHT22;5304;48.604;2.096;2023-12-29T14:03:25;11.30;99.90
10512;DHT22;5304;48.604;2.096;2023-12-29T14:06:19;11.20;99.90
10512;DHT22;5304;48.604;2.096;2023-12-29T14:09:04;11.20;99.90
10512;DHT22;5304;48.604;2.096;2023-12-29T14:11:49;11.20;99.90
10512;DHT22;5304;48.604;2.096;2023-12-29T14:14:34;11.30;99.90
10512;DHT22;5304;48.604;2.096;2023-12-29T14:17:22;11.30;99.90
10512;DHT22;5304;48.604;2.096;2023-12-29T14:20:07;11.30;99.90
10512;DHT22;5304;48.604;2.096;2023-12-29T14:23:01;11.20;99.90
10512;DHT22;5304;48.604;2.096;2023-12-29T14:25:46;11.20;99.90
10512;DHT22;5304;48.604;2.096;2023-12-29T14:28:31;11.20;99.90
10512;DHT22;5304;48.604;2.096;2023-12-29T14:31:15;11.10;99.90
10512;DHT22;5304;48.604;2.096;2023-12-29T14:33:59;11.20;99.90
10512;DHT22;5304;48.604;2.096;2023-12-29T14:36:44;11.10;99.90
10512;DHT22;5304;48.604;2.096;2023-12-29T14:39:30;11.20;99.90
10512;DHT22;5304;48.604;2.096;2023-12-29T14:42:14;11.10;99.90
10512;DHT22;5304;48.604;2.096;2023-12-29T14:44:59;11.10;99.90
10512;DHT22;5304;48.604;2.096;2023-12-29T14:47:43;11.00;99.90
10512;DHT22;5304;48.604;2.096;2023-12-29T14:50:29;11.10;99.90
10512;DHT22;5304;48.604;2.096;2023-12-29T14:53:13;11.10;99.90
10512;DHT22;5304;48.604;2.096;2023-12-29T14:55:58;11.10;99.90
10512;DHT22;5304;48.604;2.096;2023-12-29T14:58:42;11.10;99.90
10512;DHT22;5304;48.604;2.096;2023-12-29T15:01:27;11.10;99.90
10512;DHT22;5304;48.604;2.096;2023-12-29T15:04:12;11.10;99.90
10512;DHT22;5304;48.604;2.096;2023-12-29T15:06:58;11.10;99.90
10512;DHT22;5304;48.604;2.096;2023-12-29T15:09:43;11.10;99.90
10512;DHT22;5304;48.604;2.096;2023-12-29T15:12:27;11.00;99.90
10512;DHT22;5304;48.604;2.096;2023-12-29T15:15:11;11.10;99.90
10512;DHT22;5304;48.604;2.096;2023-12-29T15:17:55;11.10;99.90
10512;DHT22;5304;48.604;2.096;2023-12-29T15:20:40;11.10;99.90
10512;DHT22;5304;48.604;2.096;2023-12-29T15:23:24;11.00;99.90
10512;DHT22;5304;48.604;2.096;2023-12-29T15:26:08;11.10;99.90
10512;DHT22;5304;48.604;2.096;2023-12-29T15:28:53;11.10;99.90
10512;DHT22;5304;48.604;2.096;2023-12-29T15:31:43;11.10;99.90
10512;DHT22;5304;48.604;2.096;2023-12-29T15:34:28;11.00;99.90
10512;DHT22;5304;48.604;2.096;2023-12-29T15:37:12;11.00;99.90
10512;DHT22;5304;48.604;2.096;2023-12-29T15:39:56;11.00;99.90
10512;DHT22;5304;48.604;2.096;2023-12-29T15:42:40;11.00;99.90
10512;DHT22;5304;48.604;2.096;2023-12-29T15:45:25;10.90;99.90
10512;DHT22;5304;48.604;2.096;2023-12-29T15:48:09;11.00;99.90
10512;DHT22;5304;48.604;2.096;2023-12-29T15:50:53;11.00;99.90
10512;DHT22;5304;48.604;2.096;2023-12-29T15:53:38;11.00;99.90
10512;DHT22;5304;48.604;2.096;2023-12-29T15:56:23;11.00;99.90
10512;DHT22;5304;48.604;2.096;2023-12-29T15:59:08;11.10;99.90
10512;DHT22;5304;48.604;2.096;2023-12-29T16:01:52;11.00;99.90
10512;DHT22;5304;48.604;2.096;2023-12-29T16:04:37;11.10;99.90
10512;DHT22;5304;48.604;2.096;2023-12-29T16:07:21;11.00;99.90
10512;DHT22;5304;48.604;2.096;2023-12-29T16:10:06;11.00;99.90
10512;DHT22;5304;48.604;2.096;2023-12-29T16:12:51;11.00;99.90
10512;DHT22;5304;48.604;2.096;2023-12-29T16:15:36;11.00;99.90
10512;DHT22;5304;48.604;2.096;2023-12-29T16:18:20;11.10;99.90
10512;DHT22;5304;48.604;2.096;2023-12-29T16:21:04;11.10;99.90
10512;DHT22;5304;48.604;2.096;2023-12-29T16:23:48;11.20;99.90
10512;DHT22;5304;48.604;2.096;2023-12-29T16:26:32;11.10;99.90
10512;DHT22;5304;48.604;2.096;2023-12-29T16:29:18;11.10;99.90
10512;DHT22;5304;48.604;2.096;2023-12-29T16:32:02;11.00;99.90
10512;DHT22;5304;48.604;2.096;2023-12-29T16:34:46;11.00;99.90
10512;DHT22;5304;48.604;2.096;2023-12-29T16:37:37;11.00;99.90
10512;DHT22;5304;48.604;2.096;2023-12-29T16:40:21;11.00;99.90
10512;DHT22;5304;48.604;2.096;2023-12-29T16:43:05;11.00;99.90
10512;DHT22;5304;48.604;2.096;2023-12-29T16:45:50;11.00;99.90
10512;DHT22;5304;48.604;2.096;2023-12-29T16:48:34;11.00;99.90
10512;DHT22;5304;48.604;2.096;2023-12-29T16:51:18;11.00;99.90
10512;DHT22;5304;48.604;2.096;2023-12-29T16:54:02;10.90;99.90
10512;DHT22;5304;48.604;2.096;2023-12-29T16:56:48;10.90;99.90
10512;DHT22;5304;48.604;2.096;2023-12-29T16:59:33;10.80;99.90
10512;DHT22;5304;48.604;2.096;2023-12-29T17:02:17;10.80;99.90
10512;DHT22;5304;48.604;2.096;2023-12-29T17:05:01;10.60;99.90
10512;DHT22;5304;48.604;2.096;2023-12-29T17:07:45;10.60;99.90
10512;DHT22;5304;48.604;2.096;2023-12-29T17:10:30;10.60;99.90
10512;DHT22;5304;48.604;2.096;2023-12-29T17:13:14;10.50;99.90
10512;DHT22;5304;48.604;2.096;2023-12-29T17:15:58;10.60;99.90
10512;DHT22;5304;48.604;2.096;2023-12-29T17:18:43;10.50;99.90
10512;DHT22;5304;48.604;2.096;2023-12-29T17:21:27;10.50;99.90
10512;DHT22;5304;48.604;2.096;2023-12-29T17:24:11;10.50;99.90
10512;DHT22;5304;48.604;2.096;2023-12-29T17:26:56;10.40;99.90
10512;DHT22;5304;48.604;2.096;2023-12-29T17:29:40;10.50;99.90
10512;DHT22;5304;48.604;2.096;2023-12-29T17:32:25;10.50;99.90
10512;DHT22;5304;48.604;2.096;2023-12-29T17:35:09;10.50;99.90
10512;DHT22;5304;48.604;2.096;2023-12-29T17:37:54;10.50;99.90
10512;DHT22;5304;48.604;2.096;2023-12-29T17:40:38;10.50;99.90
10512;DHT22;5304;48.604;2.096;2023-12-29T17:43:23;10.50;99.90
10512;DHT22;5304;48.604;2.096;2023-12-29T17:46:07;10.50;99.90
10512;DHT22;5304;48.604;2.096;2023-12-29T17:48:52;10.50;99.90
10512;DHT22;5304;48.604;2.096;2023-12-29T17:51:36;10.40;99.90
10512;DHT22;5304;48.604;2.096;2023-12-29T17:54:21;10.50;99.90
10512;DHT22;5304;48.604;2.096;2023-12-29T17:57:05;10.50;99.90
10512;DHT22;5304;48.604;2.096;2023-12-29T17:59:51;10.50;99.90
10512;DHT22;5304;48.604;2.096;2023-12-29T18:02:35;10.50;99.90
10512;DHT22;5304;48.604;2.096;2023-12-29T18:05:19;10.40;99.90
10512;DHT22;5304;48.604;2.096;2023-12-29T18:08:05;10.50;99.90
10512;DHT22;5304;48.604;2.096;2023-12-29T18:10:49;10.50;99.90
10512;DHT22;5304;48.604;2.096;2023-12-29T18:13:34;10.50;99.90
10512;DHT22;5304;48.604;2.096;2023-12-29T18:16:19;10.50;99.90
10512;DHT22;5304;48.604;2.096;2023-12-29T18:19:03;10.60;99.90
10512;DHT22;5304;48.604;2.096;2023-12-29T18:21:47;10.60;99.90
10512;DHT22;5304;48.604;2.096;2023-12-29T18:24:31;10.50;99.90
10512;DHT22;5304;48.604;2.096;2023-12-29T18:27:15;10.50;99.90
10512;DHT22;5304;48.604;2.096;2023-12-29T18:30:00;10.60;99.90
10512;DHT22;5304;48.604;2.096;2023-12-29T18:32:44;10.50;99.90
10512;DHT22;5304;48.604;2.096;2023-12-29T18:35:29;10.60;99.90
10512;DHT22;5304;48.604;2.096;2023-12-29T18:38:13;10.50;99.90
10512;DHT22;5304;48.604;2.096;2023-12-29T18:40:57;10.50;99.90
10512;DHT22;5304;48.604;2.096;2023-12-29T18:43:41;10.50;99.90
10512;DHT22;5304;48.604;2.096;2023-12-29T18:46:26;10.60;99.90
10512;DHT22;5304;48.604;2.096;2023-12-29T18:49:15;10.50;99.90
10512;DHT22;5304;48.604;2.096;2023-12-29T18:51:59;10.60;99.90
10512;DHT22;5304;48.604;2.096;2023-12-29T18:54:43;10.60;99.90
10512;DHT22;5304;48.604;2.096;2023-12-29T18:57:30;10.60;99.90
10512;DHT22;5304;48.604;2.096;2023-12-29T19:00:15;10.60;99.90
10512;DHT22;5304;48.604;2.096;2023-12-29T19:03:00;10.60;99.90
10512;DHT22;5304;48.604;2.096;2023-12-29T19:05:44;10.50;99.90
10512;DHT22;5304;48.604;2.096;2023-12-29T19:08:28;10.50;99.90
10512;DHT22;5304;48.604;2.096;2023-12-29T19:11:19;10.50;99.90
10512;DHT22;5304;48.604;2.096;2023-12-29T19:14:03;10.50;99.90
10512;DHT22;5304;48.604;2.096;2023-12-29T19:16:48;10.50;99.90
10512;DHT22;5304;48.604;2.096;2023-12-29T19:19:32;10.50;99.90
10512;DHT22;5304;48.604;2.096;2023-12-29T19:22:16;10.50;99.90
10512;DHT22;5304;48.604;2.096;2023-12-29T19:25:01;10.50;99.90
10512;DHT22;5304;48.604;2.096;2023-12-29T19:27:45;10.50;99.90
10512;DHT22;5304;48.604;2.096;2023-12-29T19:30:31;10.60;99.90
10512;DHT22;5304;48.604;2.096;2023-12-29T19:33:17;10.50;99.90
10512;DHT22;5304;48.604;2.096;2023-12-29T19:36:01;10.50;99.90
10512;DHT22;5304;48.604;2.096;2023-12-29T19:38:48;10.50;99.90
10512;DHT22;5304;48.604;2.096;2023-12-29T19:41:34;10.70;99.90
10512;DHT22;5304;48.604;2.096;2023-12-29T19:44:19;10.50;99.90
10512;DHT22;5304;48.604;2.096;2023-12-29T19:47:04;10.40;99.90
10512;DHT22;5304;48.604;2.096;2023-12-29T19:49:48;10.40;99.90
10512;DHT22;5304;48.604;2.096;2023-12-29T19:52:33;10.40;99.90
10512;DHT22;5304;48.604;2.096;2023-12-29T19:55:17;10.20;99.90
10512;DHT22;5304;48.604;2.096;2023-12-29T19:58:01;10.20;99.90
10512;DHT22;5304;48.604;2.096;2023-12-29T20:00:47;10.10;99.90
10512;DHT22;5304;48.604;2.096;2023-12-29T20:03:31;10.00;99.90
10512;DHT22;5304;48.604;2.096;2023-12-29T20:06:18;9.80;99.90
10512;DHT22;5304;48.604;2.096;2023-12-29T20:09:04;9.70;99.90
10512;DHT22;5304;48.604;2.096;2023-12-29T20:11:49;9.70;99.90
10512;DHT22;5304;48.604;2.096;2023-12-29T20:14:33;9.60;99.90
10512;DHT22;5304;48.604;2.096;2023-12-29T20:17:18;9.70;99.90
10512;DHT22;5304;48.604;2.096;2023-12-29T20:20:02;9.70;99.90
10512;DHT22;5304;48.604;2.096;2023-12-29T20:22:47;9.70;99.90
10512;DHT22;5304;48.604;2.096;2023-12-29T20:25:32;9.70;99.90
10512;DHT22;5304;48.604;2.096;2023-12-29T20:28:17;9.60;99.90
10512;DHT22;5304;48.604;2.096;2023-12-29T20:31:03;9.60;99.90
10512;DHT22;5304;48.604;2.096;2023-12-29T20:33:48;9.50;99.90
10512;DHT22;5304;48.604;2.096;2023-12-29T20:36:32;9.50;99.90
10512;DHT22;5304;48.604;2.096;2023-12-29T20:39:16;9.50;99.90
10512;DHT22;5304;48.604;2.096;2023-12-29T20:42:01;9.50;99.90
10512;DHT22;5304;48.604;2.096;2023-12-29T20:44:45;9.40;99.90
10512;DHT22;5304;48.604;2.096;2023-12-29T20:47:29;9.30;99.90
10512;DHT22;5304;48.604;2.096;2023-12-29T20:50:14;9.20;99.90
10512;DHT22;5304;48.604;2.096;2023-12-29T20:52:58;9.20;99.90
10512;DHT22;5304;48.604;2.096;2023-12-29T20:55:43;9.10;99.90
10512;DHT22;5304;48.604;2.096;2023-12-29T20:58:28;9.10;99.90
10512;DHT22;5304;48.604;2.096;2023-12-29T21:01:12;9.00;99.90
10512;DHT22;5304;48.604;2.096;2023-12-29T21:03:57;9.00;99.90
10512;DHT22;5304;48.604;2.096;2023-12-29T21:06:41;9.00;99.90
10512;DHT22;5304;48.604;2.096;2023-12-29T21:09:25;9.00;99.90
10512;DHT22;5304;48.604;2.096;2023-12-29T21:12:10;8.90;99.90
10512;DHT22;5304;48.604;2.096;2023-12-29T21:14:54;8.90;99.90
10512;DHT22;5304;48.604;2.096;2023-12-29T21:17:39;8.80;99.90
10512;DHT22;5304;48.604;2.096;2023-12-29T21:20:23;8.90;99.90
10512;DHT22;5304;48.604;2.096;2023-12-29T21:23:08;8.70;99.90
